Time;durP1;ratioP1;P1;durP2;ratioP2;P2;SDS_P1;SDS_P2;PMS_P1;PMS_P2;Temp;Humidity;BMP_temperature;BMP_pressure;BME280_temperature;BME280_humidity;BME280_pressure;Samples;Min_cycle;Max_cycle;Signal;HPM_P1;HPM_P2
2021/09/20 00:02:26;;;;;;;;;;;;;;;17.81;83.46;100810.11;1847537;78;20111;-69
2021/09/20 00:04:54;;;;;;;;;;;;;;;17.83;83.26;100812.19;1847585;78;20424;-68
2021/09/20 00:07:22;;;;;;;;;;;;;;;17.85;83.12;100814.78;1847644;78;20119;-69
2021/09/20 00:09:50;;;;;;;;;;;;;;;17.84;82.96;100805.08;1847631;78;20119;-68
2021/09/20 00:12:18;;;;;;;;;;;;;;;17.85;82.87;100814.78;1847584;78;20115;-68
2021/09/20 00:14:46;;;;;;;;;;;;;;;17.84;82.72;100817.91;1847543;78;20147;-68
2021/09/20 00:17:15;;;;;;;;;;;;;;;17.86;82.59;100809.84;1847089;78;20171;-68
2021/09/20 00:19:43;;;;;;;;;;;;;;;17.87;82.37;100811.53;1847558;78;20210;-68
2021/09/20 00:22:11;;;;;;;;;;;;;;;17.92;82.26;100816.07;1847584;78;20115;-69
2021/09/20 00:24:39;;;;;;;;;;;;;;;17.90;82.41;100815.33;1847601;78;20119;-69
2021/09/20 00:27:08;;;;;;;;;;;;;;;17.86;82.53;100820.50;1847607;78;20396;-70
2021/09/20 00:29:35;;;;;;;;;;;;;;;17.80;82.68;100817.75;1847465;78;20373;-69
2021/09/20 00:32:04;;;;;;;;;;;;;;;17.75;82.81;100820.70;1847586;78;20174;-69
2021/09/20 00:34:32;;;;;;;;;;;;;;;17.72;82.87;100811.61;1847705;78;20158;-69
2021/09/20 00:37:00;;;;;;;;;;;;;;;17.69;83.11;100818.95;1847692;78;20117;-69
2021/09/20 00:39:29;;;;;;;;;;;;;;;17.66;83.32;100817.33;1847297;77;20115;-69
2021/09/20 00:41:57;;;;;;;;;;;;;;;17.64;83.21;100819.25;1847554;78;20116;-69
2021/09/20 00:44:24;;;;;;;;;;;;;;;17.63;83.24;100824.22;1847601;78;20111;-69
2021/09/20 00:46:52;;;;;;;;;;;;;;;17.61;83.27;100816.78;1847622;78;20115;-68
2021/09/20 00:49:20;;;;;;;;;;;;;;;17.59;83.32;100813.37;1847606;78;20115;-69
2021/09/20 00:51:48;;;;;;;;;;;;;;;17.57;83.27;100820.62;1847579;78;20119;-69
2021/09/20 00:54:16;;;;;;;;;;;;;;;17.53;83.30;100825.78;1847566;78;20146;-69
2021/09/20 00:56:44;;;;;;;;;;;;;;;17.52;83.27;100830.72;1847420;78;20166;-68
2021/09/20 00:59:12;;;;;;;;;;;;;;;17.51;83.27;100834.35;1847584;78;20370;-68
2021/09/20 01:01:39;;;;;;;;;;;;;;;17.51;83.29;100838.34;1847575;78;20111;-68
2021/09/20 01:04:08;;;;;;;;;;;;;;;17.52;83.10;100835.59;1847587;78;20116;-68
2021/09/20 01:06:35;;;;;;;;;;;;;;;17.52;83.02;100856.00;1847549;78;20147;-68
2021/09/20 01:09:03;;;;;;;;;;;;;;;17.50;82.99;100852.14;1847518;78;20186;-68
2021/09/20 01:11:32;;;;;;;;;;;;;;;17.50;83.05;100852.59;1847538;78;20150;-68
2021/09/20 01:14:00;;;;;;;;;;;;;;;17.49;83.11;100845.58;1847556;78;20104;-68
2021/09/20 01:16:27;;;;;;;;;;;;;;;17.51;83.28;100848.99;1847630;78;20119;-68
2021/09/20 01:18:55;;;;;;;;;;;;;;;17.52;83.20;100838.70;1847567;78;20115;-68
2021/09/20 01:21:23;;;;;;;;;;;;;;;17.53;83.21;100840.42;1847558;78;20170;-68
2021/09/20 01:23:51;;;;;;;;;;;;;;;17.53;83.10;100835.09;1847539;78;20206;-68
2021/09/20 01:26:19;;;;;;;;;;;;;;;17.53;83.13;100834.61;1847621;78;20103;-69
2021/09/20 01:28:47;;;;;;;;;;;;;;;17.53;83.14;100831.11;1847609;78;20146;-68
2021/09/20 01:31:14;;;;;;;;;;;;;;;17.54;83.18;100820.84;1847554;78;20124;-69
2021/09/20 01:33:42;;;;;;;;;;;;;;;17.58;83.11;100821.01;1847574;78;20142;-69
2021/09/20 01:36:10;;;;;;;;;;;;;;;17.61;82.96;100827.92;1847500;78;20116;-70
2021/09/20 01:38:38;;;;;;;;;;;;;;;17.59;82.85;100828.02;1843418;77;20207;-70
2021/09/20 01:41:06;;;;;;;;;;;;;;;17.55;82.69;100827.86;1827202;79;20148;-69
2021/09/20 01:43:34;;;;;;;;;;;;;;;17.51;82.61;100834.35;1827090;79;20222;-69
2021/09/20 01:46:02;;;;;;;;;;;;;;;17.45;82.51;100841.42;1827088;79;20178;-68
2021/09/20 01:48:30;;;;;;;;;;;;;;;17.37;82.48;100841.91;1827085;79;20152;-67
2021/09/20 01:50:57;;;;;;;;;;;;;;;17.32;82.47;100850.20;1827049;79;20267;-68
2021/09/20 01:53:25;;;;;;;;;;;;;;;17.30;82.49;100849.91;1827141;79;20179;-67
2021/09/20 01:55:53;;;;;;;;;;;;;;;17.27;82.52;100858.12;1827081;79;20204;-68
2021/09/20 01:58:21;;;;;;;;;;;;;;;17.25;82.53;100867.53;1827084;79;20148;-68
2021/09/20 02:00:49;;;;;;;;;;;;;;;17.23;82.52;100864.11;1827116;79;20148;-68
2021/09/20 02:03:17;;;;;;;;;;;;;;;17.22;82.53;100859.73;1827004;79;20180;-69
2021/09/20 02:05:45;;;;;;;;;;;;;;;17.23;82.49;100877.91;1827022;79;20152;-68
2021/09/20 02:08:13;;;;;;;;;;;;;;;17.23;82.63;100880.56;1827170;79;20449;-68
2021/09/20 02:10:40;;;;;;;;;;;;;;;17.27;82.61;100892.22;1827117;79;20148;-67
2021/09/20 02:13:08;;;;;;;;;;;;;;;17.31;82.59;100892.39;1827092;79;20144;-68
2021/09/20 02:15:36;;;;;;;;;;;;;;;17.38;82.76;100888.03;1827059;79;20152;-70
2021/09/20 02:18:04;;;;;;;;;;;;;;;17.44;82.81;100883.63;1827196;79;20239;-69
2021/09/20 02:20:32;;;;;;;;;;;;;;;17.47;82.70;100882.95;1827088;79;20145;-68
2021/09/20 02:23:00;;;;;;;;;;;;;;;17.48;82.61;100883.79;1827041;79;20233;-70
2021/09/20 02:25:28;;;;;;;;;;;;;;;17.51;83.22;100887.59;1827073;79;20144;-70
2021/09/20 02:27:56;;;;;;;;;;;;;;;17.53;83.67;100884.34;1827103;79;20179;-69
2021/09/20 02:30:24;;;;;;;;;;;;;;;17.56;83.21;100892.14;1827024;79;20176;-70
2021/09/20 02:32:51;;;;;;;;;;;;;;;17.56;82.54;100892.14;1827101;79;20133;-70
2021/09/20 02:35:19;;;;;;;;;;;;;;;17.57;82.44;100901.81;1827094;79;20140;-70
2021/09/20 02:37:47;;;;;;;;;;;;;;;17.56;81.82;100904.13;1827052;79;20152;-69
2021/09/20 02:40:15;;;;;;;;;;;;;;;17.53;81.27;100906.97;1839131;77;20149;-69
2021/09/20 02:42:43;;;;;;;;;;;;;;;17.49;81.13;100918.78;1847725;78;20154;-68
2021/09/20 02:45:11;;;;;;;;;;;;;;;17.42;81.45;100914.81;1847544;78;20186;-68
2021/09/20 02:47:39;;;;;;;;;;;;;;;17.35;81.85;100919.66;1847656;78;20128;-68
2021/09/20 02:50:08;;;;;;;;;;;;;;;17.26;81.78;100918.45;1847532;78;20146;-69
2021/09/20 02:52:36;;;;;;;;;;;;;;;17.20;81.97;100922.00;1847722;78;20107;-68
2021/09/20 02:55:04;;;;;;;;;;;;;;;17.13;82.78;100926.39;1847546;78;20197;-68
2021/09/20 02:57:32;;;;;;;;;;;;;;;17.08;83.32;100935.58;1847418;78;20150;-69
2021/09/20 02:59:59;;;;;;;;;;;;;;;16.98;84.27;100940.16;1847557;78;20115;-68
2021/09/20 03:02:27;;;;;;;;;;;;;;;16.90;83.78;100933.14;1847532;78;20143;-68
2021/09/20 03:04:55;;;;;;;;;;;;;;;16.85;83.43;100931.72;1847658;78;20146;-68
2021/09/20 03:07:24;;;;;;;;;;;;;;;16.81;83.44;100931.03;1847629;78;20175;-67
2021/09/20 03:09:52;;;;;;;;;;;;;;;16.78;83.38;100929.42;1847516;78;20381;-68
2021/09/20 03:12:19;;;;;;;;;;;;;;;16.77;84.26;100922.87;1847520;78;20099;-68
2021/09/20 03:14:47;;;;;;;;;;;;;;;16.74;84.14;100917.73;1847512;78;20150;-68
2021/09/20 03:17:15;;;;;;;;;;;;;;;16.72;84.21;100919.63;1847486;78;20123;-69
2021/09/20 03:19:45;;;;;;;;;;;;;;;16.71;84.05;100918.78;1847575;78;20266;-69
2021/09/20 03:22:13;;;;;;;;;;;;;;;16.69;83.94;100916.70;1847839;78;20112;-69
2021/09/20 03:24:41;;;;;;;;;;;;;;;16.71;83.89;100920.56;1847524;78;20120;-69
2021/09/20 03:27:09;;;;;;;;;;;;;;;16.69;83.96;100933.98;1847628;78;20111;-69
2021/09/20 03:29:37;;;;;;;;;;;;;;;16.67;83.84;100935.85;1847674;78;20119;-70
2021/09/20 03:32:05;;;;;;;;;;;;;;;16.67;83.95;100935.85;1847625;78;20115;-67
2021/09/20 03:34:32;;;;;;;;;;;;;;;16.67;84.12;100937.18;1847685;78;20163;-67
2021/09/20 03:37:00;;;;;;;;;;;;;;;16.66;83.93;100933.31;1847567;78;20112;-70
2021/09/20 03:39:28;;;;;;;;;;;;;;;16.67;83.79;100937.66;1847620;78;20112;-69
2021/09/20 03:41:56;;;;;;;;;;;;;;;16.67;83.94;100932.34;1847538;77;20124;-68
2021/09/20 03:44:24;;;;;;;;;;;;;;;16.63;84.13;100937.48;1847634;78;20163;-69
2021/09/20 03:46:52;;;;;;;;;;;;;;;16.61;84.14;100946.88;1847670;78;20115;-69
2021/09/20 03:49:20;;;;;;;;;;;;;;;16.59;84.18;100946.96;1847606;78;20116;-69
2021/09/20 03:51:48;;;;;;;;;;;;;;;16.58;84.24;100948.38;1847602;78;20143;-70
2021/09/20 03:54:16;;;;;;;;;;;;;;;16.59;84.20;100956.27;1847662;78;20112;-68
2021/09/20 03:56:43;;;;;;;;;;;;;;;16.59;84.51;100950.95;1847564;78;20209;-66
2021/09/20 03:59:11;;;;;;;;;;;;;;;16.59;84.99;100952.28;1847607;78;20115;-66
2021/09/20 04:01:39;;;;;;;;;;;;;;;16.59;85.84;100962.91;1847594;78;20142;-67
2021/09/20 04:04:07;;;;;;;;;;;;;;;16.60;86.05;100967.30;1847540;78;20103;-69
2021/09/20 04:06:35;;;;;;;;;;;;;;;16.63;86.01;100966.23;1847650;78;20119;-68
2021/09/20 04:09:06;;;;;;;;;;;;;;;16.68;86.10;100964.64;1847560;78;20103;-66
2021/09/20 04:11:34;;;;;;;;;;;;;;;16.71;85.77;100960.45;1847647;78;20155;-69
2021/09/20 04:14:02;;;;;;;;;;;;;;;16.77;85.45;100961.42;1847621;78;20111;-68
2021/09/20 04:16:30;;;;;;;;;;;;;;;16.87;85.35;100960.41;1847593;78;20119;-68
2021/09/20 04:18:58;;;;;;;;;;;;;;;17.04;85.63;100972.65;1847470;78;20112;-68
2021/09/20 04:21:26;;;;;;;;;;;;;;;17.14;85.30;100974.64;1847629;78;20120;-69
2021/09/20 04:23:54;;;;;;;;;;;;;;;17.17;85.16;100978.45;1847633;78;20162;-68
2021/09/20 04:26:22;;;;;;;;;;;;;;;17.16;85.39;100975.87;1847620;78;20183;-68
2021/09/20 04:28:49;;;;;;;;;;;;;;;17.15;85.59;100980.36;1847646;78;20146;-68
2021/09/20 04:31:17;;;;;;;;;;;;;;;17.21;85.83;100973.79;1847496;78;20120;-68
2021/09/20 04:33:45;;;;;;;;;;;;;;;17.21;85.88;100981.77;1847597;78;20119;-67
2021/09/20 04:36:13;;;;;;;;;;;;;;;17.19;86.13;100977.03;1847574;78;20142;-67
2021/09/20 04:38:41;;;;;;;;;;;;;;;17.18;86.12;100984.62;1847592;78;20103;-66
2021/09/20 04:41:09;;;;;;;;;;;;;;;17.18;85.84;100984.62;1847689;78;20123;-67
2021/09/20 04:43:37;;;;;;;;;;;;;;;17.17;85.92;100978.91;1847535;77;20123;-68
2021/09/20 04:46:05;;;;;;;;;;;;;;;17.18;85.88;100979.30;1847530;78;20197;-68
2021/09/20 04:48:32;;;;;;;;;;;;;;;17.23;85.83;100995.83;1847685;78;20115;-68
2021/09/20 04:51:00;;;;;;;;;;;;;;;17.29;85.76;100991.44;1847581;78;20115;-67
2021/09/20 04:53:28;;;;;;;;;;;;;;;17.36;85.61;100986.11;1847600;78;20103;-68
2021/09/20 04:55:56;;;;;;;;;;;;;;;17.45;85.45;100990.48;1847613;78;20159;-68
2021/09/20 04:58:24;;;;;;;;;;;;;;;17.70;85.31;100991.92;1847490;78;20158;-68
2021/09/20 05:00:52;;;;;;;;;;;;;;;18.03;85.21;100984.03;1847598;78;20120;-68
2021/09/20 05:03:20;;;;;;;;;;;;;;;18.59;85.27;100982.50;1847727;78;20146;-68
2021/09/20 05:05:48;;;;;;;;;;;;;;;19.28;85.04;100980.33;1847603;78;20120;-68
2021/09/20 05:08:17;;;;;;;;;;;;;;;19.60;84.40;100978.95;1847612;78;20116;-67
2021/09/20 05:10:45;;;;;;;;;;;;;;;19.55;83.65;100981.10;1847593;78;20479;-66
2021/09/20 05:13:13;;;;;;;;;;;;;;;19.32;82.24;100992.13;1847544;78;20151;-67
2021/09/20 05:15:42;;;;;;;;;;;;;;;19.11;82.19;100988.70;1847678;78;20131;-67
2021/09/20 05:18:11;;;;;;;;;;;;;;;18.81;81.75;100986.36;1847518;78;20146;-67
2021/09/20 05:20:39;;;;;;;;;;;;;;;18.60;82.14;100984.69;1847539;78;20131;-67
2021/09/20 05:23:07;;;;;;;;;;;;;;;18.44;82.34;100997.74;1847503;78;20174;-66
2021/09/20 05:25:34;;;;;;;;;;;;;;;18.31;82.61;100996.39;1847444;78;20166;-66
2021/09/20 05:28:03;;;;;;;;;;;;;;;18.21;82.77;100997.10;1847549;78;20142;-67
2021/09/20 05:30:31;;;;;;;;;;;;;;;18.10;83.28;100996.00;1847548;78;20162;-67
2021/09/20 05:32:59;;;;;;;;;;;;;;;18.02;83.96;100998.33;1847562;78;20142;-67
2021/09/20 05:35:27;;;;;;;;;;;;;;;17.97;84.49;101001.77;1847589;78;20116;-67
2021/09/20 05:37:55;;;;;;;;;;;;;;;17.91;84.73;101008.36;1847536;78;20150;-68
2021/09/20 05:40:23;;;;;;;;;;;;;;;17.90;84.45;101007.13;1847577;78;20201;-67
2021/09/20 05:42:56;;;;;;;;;;;;;;;17.90;84.64;101011.12;1840519;78;20145;-66
2021/09/20 05:45:21;;;;;;;;;;;;;;;17.91;85.29;101013.69;1826129;79;20145;-66
2021/09/20 05:47:50;;;;;;;;;;;;;;;17.95;85.24;101014.34;1827090;79;20156;-67
2021/09/20 05:50:19;;;;;;;;;;;;;;;18.00;85.24;101022.89;1827284;79;20429;-67
2021/09/20 05:52:48;;;;;;;;;;;;;;;18.06;85.21;101018.48;1827126;79;20148;-67
2021/09/20 05:55:16;;;;;;;;;;;;;;;18.14;84.97;101026.80;1827074;79;20429;-66
2021/09/20 05:57:44;;;;;;;;;;;;;;;18.24;84.67;101028.86;1827040;79;20144;-67
2021/09/20 06:00:12;;;;;;;;;;;;;;;18.36;84.39;101032.05;1827069;79;20136;-67
2021/09/20 06:02:41;;;;;;;;;;;;;;;18.58;84.05;101034.12;1827250;79;20152;-66
2021/09/20 06:05:11;;;;;;;;;;;;;;;19.13;83.26;101040.64;1826992;79;20144;-67
2021/09/20 06:07:39;;;;;;;;;;;;;;;19.61;81.95;101042.11;1827073;79;20168;-66
2021/09/20 06:10:07;;;;;;;;;;;;;;;19.86;81.55;101039.39;1827075;79;20165;-66
2021/09/20 06:12:35;;;;;;;;;;;;;;;19.91;79.05;101048.39;1827206;79;20207;-66
2021/09/20 06:15:04;;;;;;;;;;;;;;;20.04;78.95;101052.34;1827087;79;20136;-67
2021/09/20 06:17:32;;;;;;;;;;;;;;;20.38;78.96;101047.14;1827036;79;20445;-67
2021/09/20 06:20:00;;;;;;;;;;;;;;;20.58;78.61;101053.66;1827116;79;20188;-67
2021/09/20 06:22:28;;;;;;;;;;;;;;;21.52;78.90;101044.55;1827050;79;20175;-66
2021/09/20 06:24:58;;;;;;;;;;;;;;;22.50;76.61;101050.87;1827020;79;20144;-67
2021/09/20 06:27:27;;;;;;;;;;;;;;;23.30;75.91;101050.25;1826357;79;20183;-66
2021/09/20 06:29:55;;;;;;;;;;;;;;;24.07;74.89;101051.97;1825620;79;20191;-65
2021/09/20 06:32:23;;;;;;;;;;;;;;;24.73;72.32;101045.84;1825537;79;20192;-64
2021/09/20 06:34:51;;;;;;;;;;;;;;;25.24;71.52;101051.33;1825643;79;20149;-66
2021/09/20 06:37:19;;;;;;;;;;;;;;;25.83;69.63;101059.12;1825628;79;20179;-65
2021/09/20 06:39:46;;;;;;;;;;;;;;;26.33;67.09;101056.44;1825597;79;20153;-65
2021/09/20 06:42:14;;;;;;;;;;;;;;;26.68;66.67;101057.44;1825655;79;20148;-64
2021/09/20 06:44:42;;;;;;;;;;;;;;;27.13;65.58;101063.98;1825668;78;20175;-66
2021/09/20 06:47:10;;;;;;;;;;;;;;;27.36;63.34;101068.02;1825620;79;20227;-66
2021/09/20 06:49:38;;;;;;;;;;;;;;;27.75;63.82;101071.03;1825559;79;20175;-66
2021/09/20 06:52:06;;;;;;;;;;;;;;;28.13;60.68;101071.50;1825555;79;20152;-66
2021/09/20 06:54:33;;;;;;;;;;;;;;;28.40;60.50;101074.89;1825548;79;20148;-65
2021/09/20 06:57:01;;;;;;;;;;;;;;;28.56;58.51;101076.80;1825529;79;20132;-66
2021/09/20 06:59:29;;;;;;;;;;;;;;;28.72;57.98;101071.37;1825440;79;20183;-66
2021/09/20 07:01:57;;;;;;;;;;;;;;;29.02;58.14;101067.08;1825557;79;20136;-65
2021/09/20 07:04:25;;;;;;;;;;;;;;;29.60;54.60;101077.75;1825588;79;20188;-67
2021/09/20 07:06:53;;;;;;;;;;;;;;;29.88;55.39;101073.23;1825603;79;20144;-66
2021/09/20 07:09:21;;;;;;;;;;;;;;;30.14;51.30;101076.47;1825590;79;20132;-65
2021/09/20 07:11:49;;;;;;;;;;;;;;;30.31;52.17;101085.34;1825528;79;20148;-66
2021/09/20 07:14:17;;;;;;;;;;;;;;;30.39;50.34;101075.78;1825613;79;20227;-66
2021/09/20 07:16:45;;;;;;;;;;;;;;;30.14;49.56;101072.91;1825706;79;20152;-65
2021/09/20 07:19:13;;;;;;;;;;;;;;;30.12;46.75;101078.52;1825558;79;20145;-66
2021/09/20 07:21:41;;;;;;;;;;;;;;;30.29;44.93;101080.60;1825695;79;20145;-65
2021/09/20 07:24:09;;;;;;;;;;;;;;;30.57;45.31;101082.78;1825599;79;20152;-66
2021/09/20 07:26:37;;;;;;;;;;;;;;;30.91;45.71;101070.10;1825495;79;20149;-66
2021/09/20 07:29:04;;;;;;;;;;;;;;;30.20;43.00;101074.37;1825561;79;20176;-66
2021/09/20 07:31:32;;;;;;;;;;;;;;;28.75;46.73;101075.59;1825683;79;20132;-66
2021/09/20 07:34:00;;;;;;;;;;;;;;;27.71;48.24;101067.80;1825700;79;20149;-66
2021/09/20 07:36:28;;;;;;;;;;;;;;;26.82;48.22;101069.02;1825585;79;20144;-66
2021/09/20 07:38:56;;;;;;;;;;;;;;;25.81;45.92;101057.09;1825430;79;20191;-67
2021/09/20 07:41:23;;;;;;;;;;;;;;;25.17;48.21;101068.21;1825621;79;20176;-65
2021/09/20 07:43:51;;;;;;;;;;;;;;;24.96;49.62;101077.35;1830926;78;20107;-65
2021/09/20 07:46:20;;;;;;;;;;;;;;;24.63;50.03;101073.30;1845953;78;20385;-65
2021/09/20 07:48:47;;;;;;;;;;;;;;;24.34;50.79;101071.94;1846083;78;20173;-65
2021/09/20 07:51:15;;;;;;;;;;;;;;;24.12;51.08;101059.10;1846066;78;20475;-65
2021/09/20 07:53:43;;;;;;;;;;;;;;;24.01;51.67;101065.45;1845945;78;20162;-67
2021/09/20 07:56:11;;;;;;;;;;;;;;;24.10;51.83;101058.39;1846020;78;20416;-66
2021/09/20 07:58:40;;;;;;;;;;;;;;;24.28;52.26;101070.16;1846059;78;20377;-66
2021/09/20 08:01:08;;;;;;;;;;;;;;;24.18;52.63;101061.72;1846029;78;20162;-66
2021/09/20 08:03:36;;;;;;;;;;;;;;;23.89;51.68;101066.08;1846000;78;20205;-66
2021/09/20 08:06:06;;;;;;;;;;;;;;;23.75;53.16;101065.09;1845930;78;20112;-66
2021/09/20 08:08:33;;;;;;;;;;;;;;;23.81;53.64;101056.53;1846225;78;20146;-66
2021/09/20 08:11:01;;;;;;;;;;;;;;;23.94;54.01;101047.33;1846145;78;20120;-66
2021/09/20 08:13:30;;;;;;;;;;;;;;;24.11;53.79;101046.66;1846108;78;20115;-66
2021/09/20 08:15:58;;;;;;;;;;;;;;;24.33;52.70;101054.95;1846109;78;20120;-66
2021/09/20 08:18:25;;;;;;;;;;;;;;;24.31;52.14;101057.41;1846092;78;20366;-67
2021/09/20 08:20:53;;;;;;;;;;;;;;;24.17;51.23;101051.47;1846215;78;20194;-67
2021/09/20 08:23:21;;;;;;;;;;;;;;;24.00;50.41;101050.83;1846134;78;20107;-66
2021/09/20 08:25:49;;;;;;;;;;;;;;;24.01;51.33;101049.82;1846118;78;20111;-67
2021/09/20 08:28:18;;;;;;;;;;;;;;;24.16;51.47;101048.44;1846082;78;20154;-66
2021/09/20 08:30:47;;;;;;;;;;;;;;;24.16;51.28;101053.82;1846072;78;20182;-67
2021/09/20 08:33:15;;;;;;;;;;;;;;;24.16;51.84;101048.91;1845999;78;20150;-67
2021/09/20 08:35:43;;;;;;;;;;;;;;;24.08;51.78;101049.62;1846096;78;20116;-67
2021/09/20 08:38:10;;;;;;;;;;;;;;;23.90;50.57;101046.75;1846133;78;20150;-66
2021/09/20 08:40:38;;;;;;;;;;;;;;;23.81;51.96;101049.81;1846106;78;20104;-66
2021/09/20 08:43:06;;;;;;;;;;;;;;;24.16;52.19;101044.41;1846147;78;20209;-66
2021/09/20 08:45:34;;;;;;;;;;;;;;;24.44;51.51;101047.23;1832218;77;20144;-67
2021/09/20 08:48:02;;;;;;;;;;;;;;;24.91;50.82;101052.69;1825630;79;20207;-66
2021/09/20 08:50:31;;;;;;;;;;;;;;;24.97;50.09;101049.44;1825677;79;20144;-66
2021/09/20 08:52:59;;;;;;;;;;;;;;;24.84;50.37;101055.14;1825680;79;20175;-66
2021/09/20 08:55:27;;;;;;;;;;;;;;;24.90;50.87;101056.39;1825790;79;20148;-67
2021/09/20 08:57:55;;;;;;;;;;;;;;;24.95;51.04;101050.56;1825692;79;20175;-66
2021/09/20 09:00:25;;;;;;;;;;;;;;;25.15;50.57;101058.92;1825536;79;20156;-67
2021/09/20 09:02:53;;;;;;;;;;;;;;;25.48;50.90;101057.20;1825702;79;20179;-66
2021/09/20 09:05:22;;;;;;;;;;;;;;;26.18;50.76;101050.23;1825670;79;20149;-66
2021/09/20 09:07:54;;;;;;;;;;;;;;;27.52;48.23;101046.45;1825669;79;20204;-66
2021/09/20 09:10:26;;;;;;;;;;;;;;;28.40;47.26;101048.65;1825105;78;20179;-66
2021/09/20 09:12:54;;;;;;;;;;;;;;;29.11;45.53;101039.45;1825631;79;20180;-66
2021/09/20 09:15:24;;;;;;;;;;;;;;;29.47;43.46;101044.41;1825652;79;20156;-66
2021/09/20 09:17:54;;;;;;;;;;;;;;;29.68;43.05;101041.59;1825668;79;20148;-66
2021/09/20 09:20:23;;;;;;;;;;;;;;;29.84;42.16;101038.81;1825669;79;20152;-66
2021/09/20 09:22:53;;;;;;;;;;;;;;;28.46;42.88;101041.22;1825417;77;20144;-66
2021/09/20 09:25:22;;;;;;;;;;;;;;;27.90;44.56;101036.93;1825692;79;20403;-66
2021/09/20 09:27:52;;;;;;;;;;;;;;;27.88;45.24;101032.67;1825789;79;20179;-66
2021/09/20 09:30:27;;;;;;;;;;;;;;;27.98;45.30;101030.72;1825773;79;20402;-66
2021/09/20 09:33:06;;;;;;;;;;;;;;;28.36;45.20;101033.77;1825671;79;20137;-66
2021/09/20 09:35:34;;;;;;;;;;;;;;;28.80;44.34;101044.25;1825767;79;20132;-67
2021/09/20 09:38:04;;;;;;;;;;;;;;;28.87;43.84;101045.78;1825613;79;20179;-66
2021/09/20 09:40:33;;;;;;;;;;;;;;;28.93;44.15;101041.02;1825620;79;20152;-66
2021/09/20 09:43:02;;;;;;;;;;;;;;;29.05;44.04;101038.80;1808830;78;20140;-66
2021/09/20 09:45:31;;;;;;;;;;;;;;;29.14;44.03;101043.20;1833438;77;20123;-65
2021/09/20 09:48:13;;;;;;;;;;;;;;;29.15;42.97;101044.88;1846098;78;20124;-66
2021/09/20 09:50:43;;;;;;;;;;;;;;;28.93;43.14;101045.08;1846089;78;20111;-66
2021/09/20 09:53:12;;;;;;;;;;;;;;;28.80;42.81;101048.32;1846093;78;20112;-67
2021/09/20 09:55:40;;;;;;;;;;;;;;;28.72;43.48;101048.34;1844297;78;20107;-67
2021/09/20 09:58:12;;;;;;;;;;;;;;;29.00;43.07;101038.47;1846120;78;20119;-67
2021/09/20 10:00:39;;;;;;;;;;;;;;;29.23;42.68;101042.64;1846041;78;20141;-68
2021/09/20 10:03:07;;;;;;;;;;;;;;;29.42;41.98;101043.59;1846148;78;20123;-67
2021/09/20 10:05:35;;;;;;;;;;;;;;;29.12;41.00;101038.92;1846089;78;20111;-67
2021/09/20 10:08:04;;;;;;;;;;;;;;;29.21;41.93;101049.59;1846093;78;20116;-67
2021/09/20 10:10:32;;;;;;;;;;;;;;;29.21;41.60;101036.03;1845367;78;20147;-67
2021/09/20 10:13:04;;;;;;;;;;;;;;;29.10;42.00;101041.80;1846089;78;20111;-67
2021/09/20 10:15:35;;;;;;;;;;;;;;;29.11;42.10;101039.97;1845996;78;20119;-67
2021/09/20 10:18:04;;;;;;;;;;;;;;;28.78;42.42;101030.03;1846324;78;20127;-67
2021/09/20 10:20:33;;;;;;;;;;;;;;;28.23;42.77;101019.38;1846189;78;20112;-67
2021/09/20 10:23:00;;;;;;;;;;;;;;;28.18;43.43;101029.02;1846092;78;20107;-67
2021/09/20 10:25:30;;;;;;;;;;;;;;;28.21;40.21;101017.87;1846121;78;20123;-67
2021/09/20 10:27:58;;;;;;;;;;;;;;;28.07;39.39;101021.59;1846021;78;20483;-66
2021/09/20 10:30:27;;;;;;;;;;;;;;;27.96;38.27;101015.16;1846190;78;20386;-67
2021/09/20 10:32:59;;;;;;;;;;;;;;;27.96;37.78;101021.05;1846093;78;20382;-67
2021/09/20 10:35:28;;;;;;;;;;;;;;;27.82;36.73;101034.19;1846235;78;20142;-68
2021/09/20 10:38:03;;;;;;;;;;;;;;;27.63;37.38;101032.63;1815653;78;20127;-67
2021/09/20 10:40:32;;;;;;;;;;;;;;;27.58;37.63;101045.80;1846082;78;20104;-67
2021/09/20 10:43:03;;;;;;;;;;;;;;;27.58;38.25;101036.33;1846092;78;20116;-67
2021/09/20 10:45:38;;;;;;;;;;;;;;;27.58;37.77;101045.80;1846021;77;20402;-67
2021/09/20 10:48:16;;;;;;;;;;;;;;;27.80;37.94;101036.22;1846054;78;20104;-67
2021/09/20 10:50:45;;;;;;;;;;;;;;;27.88;37.75;101032.16;1846046;78;20120;-67
2021/09/20 10:53:28;;;;;;;;;;;;;;;27.94;38.66;101040.16;1846074;78;20229;-67
2021/09/20 10:56:07;;;;;;;;;;;;;;;27.82;39.10;101039.60;1843642;78;20103;-67
2021/09/20 10:58:37;;;;;;;;;;;;;;;27.85;39.33;101039.77;1846108;78;20158;-66
2021/09/20 11:01:15;;;;;;;;;;;;;;;27.78;37.49;101030.13;1846036;78;20112;-68
2021/09/20 11:03:46;;;;;;;;;;;;;;;27.59;37.97;101030.41;1846050;78;20139;-68
2021/09/20 11:06:21;;;;;;;;;;;;;;;27.49;38.72;101032.73;1846117;78;20107;-67
2021/09/20 11:09:02;;;;;;;;;;;;;;;27.43;39.60;101040.67;1846114;78;20115;-67
2021/09/20 11:11:44;;;;;;;;;;;;;;;27.03;39.09;101029.97;1846047;78;20150;-68
2021/09/20 11:14:16;;;;;;;;;;;;;;;26.65;39.77;101036.14;1846200;78;20115;-66
2021/09/20 11:16:47;;;;;;;;;;;;;;;26.50;41.32;101040.72;1846067;78;20104;-66
2021/09/20 11:19:28;;;;;;;;;;;;;;;26.44;40.85;101040.00;1846078;78;20128;-66
2021/09/20 11:22:11;;;;;;;;;;;;;;;26.19;40.39;101039.80;1845992;78;20116;-67
2021/09/20 11:24:50;;;;;;;;;;;;;;;25.78;41.05;101031.28;1846065;78;20199;-67
2021/09/20 11:27:34;;;;;;;;;;;;;;;25.36;42.62;101041.23;1846057;78;20174;-67
2021/09/20 11:30:08;;;;;;;;;;;;;;;25.04;43.69;101034.36;1846036;78;20383;-67
2021/09/20 11:32:44;;;;;;;;;;;;;;;24.92;44.97;101030.16;1845954;78;20426;-67
2021/09/20 11:35:12;;;;;;;;;;;;;;;24.84;45.06;101035.41;1844504;78;20172;-67
2021/09/20 11:37:40;;;;;;;;;;;;;;;24.77;45.79;101034.30;1846023;78;20115;-67
2021/09/20 11:40:10;;;;;;;;;;;;;;;24.78;46.18;101027.92;1846094;78;20257;-67
2021/09/20 11:42:40;;;;;;;;;;;;;;;24.75;45.53;101035.81;1844763;78;20186;-67
2021/09/20 11:45:12;;;;;;;;;;;;;;;24.73;45.21;101035.08;1846110;78;20178;-66
2021/09/20 11:47:41;;;;;;;;;;;;;;;24.75;45.18;101024.17;1846080;77;20119;-67
2021/09/20 11:50:14;;;;;;;;;;;;;;;24.82;44.88;101029.33;1846169;78;20128;-68
2021/09/20 11:52:43;;;;;;;;;;;;;;;24.87;44.47;101023.52;1846146;78;20146;-68
2021/09/20 11:55:16;;;;;;;;;;;;;;;24.86;43.81;101022.65;1846092;78;20150;-67
2021/09/20 11:57:45;;;;;;;;;;;;;;;24.84;43.88;101035.41;1846153;78;20147;-67
2021/09/20 12:00:14;;;;;;;;;;;;;;;24.74;44.11;101021.14;1846176;78;20104;-67
2021/09/20 12:02:43;;;;;;;;;;;;;;;24.68;45.17;101020.35;1846154;78;20412;-67
2021/09/20 12:05:15;;;;;;;;;;;;;;;24.65;43.66;101030.42;1844604;78;20111;-68
2021/09/20 12:07:50;;;;;;;;;;;;;;;24.63;43.38;101027.53;1845343;78;20120;-67
2021/09/20 12:10:18;;;;;;;;;;;;;;;24.55;42.63;101006.73;1846147;78;20190;-67
2021/09/20 12:12:49;;;;;;;;;;;;;;;24.51;43.32;101021.92;1844179;78;20123;-67
2021/09/20 12:15:17;;;;;;;;;;;;;;;24.44;43.97;101025.70;1846190;78;20150;-68
2021/09/20 12:17:45;;;;;;;;;;;;;;;24.41;44.53;101017.91;1846172;78;20234;-68
2021/09/20 12:20:13;;;;;;;;;;;;;;;24.35;44.56;101022.02;1846110;78;20115;-69
2021/09/20 12:22:43;;;;;;;;;;;;;;;24.30;45.42;101013.52;1846090;78;20190;-67
2021/09/20 12:25:29;;;;;;;;;;;;;;;24.22;45.40;101014.23;1846170;78;20099;-67
2021/09/20 12:27:57;;;;;;;;;;;;;;;24.14;45.65;101008.70;1846209;78;20116;-68
2021/09/20 12:30:25;;;;;;;;;;;;;;;24.20;45.64;101014.03;1846120;78;20108;-68
2021/09/20 12:33:10;;;;;;;;;;;;;;;24.22;45.89;101012.89;1846082;78;20103;-68
2021/09/20 12:35:39;;;;;;;;;;;;;;;24.08;45.14;101012.80;1846130;78;20159;-67
2021/09/20 12:38:14;;;;;;;;;;;;;;;23.95;46.11;101008.20;1846156;78;20271;-68
2021/09/20 12:40:42;;;;;;;;;;;;;;;23.95;46.50;101015.42;1846227;78;20374;-68
2021/09/20 12:43:12;;;;;;;;;;;;;;;23.92;45.51;101018.39;1846085;78;20154;-68
2021/09/20 12:45:44;;;;;;;;;;;;;;;23.85;45.74;101024.34;1842871;78;20151;-68